Time;durP1;ratioP1;P1;durP2;ratioP2;P2;SDS_P1;SDS_P2;PMS_P1;PMS_P2;Temp;Humidity;BMP_temperature;BMP_pressure;BME280_temperature;BME280_humidity;BME280_pressure;Samples;Min_cycle;Max_cycle;Signal;HPM_P1;HPM_P2
2021/12/05 00:20:24;;;;;;;14.27;4.90;;;;;;;1.89;100.00;99589.94;4917404;29;20043;-90
2021/12/05 00:22:46;;;;;;;19.00;5.05;;;;;;;1.68;100.00;99555.13;4920542;29;20043;-89
2021/12/05 00:25:24;;;;;;;17.10;4.30;;;;;;;2.08;100.00;99627.75;4904306;29;20533;-90
2021/12/05 00:28:07;;;;;;;19.05;5.22;;;;;;;1.68;100.00;99555.97;4890331;29;20040;-90
2021/12/05 00:51:53;;;;;;;21.60;5.72;;;;;;;1.70;100.00;99625.31;4911875;29;20048;-89
2021/12/05 01:04:58;;;;;;;21.05;6.05;;;;;;;1.39;100.00;99608.47;4928685;29;20108;-89
2021/12/05 01:10:31;;;;;;;24.08;5.50;;;;;;;1.43;100.00;99650.84;4930223;29;20040;-90
2021/12/05 01:15:27;;;;;;;22.17;5.45;;;;;;;1.60;100.00;99673.72;4900452;29;20437;-90
2021/12/05 01:18:06;;;;;;;28.10;6.05;;;;;;;0.87;100.00;99559.47;4913776;29;20382;-89
2021/12/05 01:20:35;;;;;;;20.17;5.55;;;;;;;0.79;100.00;99559.56;4912896;29;20032;-89
2021/12/05 01:28:42;;;;;;;20.60;5.05;;;;;;;0.90;100.00;99578.81;4903738;29;20047;-89
2021/12/05 01:34:14;;;;;;;24.75;6.90;;;;;;;0.61;100.00;99562.56;4920263;29;20431;-91
2021/12/05 01:59:22;;;;;;;23.60;5.72;;;;;;;0.78;100.00;99579.25;4879971;29;20273;-90
2021/12/05 02:15:13;;;;;;;22.70;5.10;;;;;;;0.77;100.00;99572.28;4919760;29;20046;-89
2021/12/05 02:15:27;;;;;;;23.83;5.18;;;;;;;0.79;100.00;99564.91;4914399;29;20462;-90
2021/12/05 02:34:38;;;;;;;17.92;4.88;;;;;;;1.24;100.00;99602.31;4919679;29;20043;-89
2021/12/05 02:37:23;;;;;;;21.80;4.75;;;;;;;1.16;100.00;99592.53;4901437;29;20028;-88
2021/12/05 02:40:05;;;;;;;14.80;4.25;;;;;;;0.81;100.00;99532.66;4918661;29;20167;-89
2021/12/05 02:42:34;;;;;;;;;;;;;;;1.53;100.00;99630.84;4901740;29;20058;-89
2021/12/05 02:45:02;;;;;;;15.75;4.43;;;;;;;1.35;100.00;99619.72;4897367;29;20002;-88
2021/12/05 02:47:31;;;;;;;19.45;4.60;;;;;;;1.42;100.00;99620.63;4897887;29;20471;-87
2021/12/05 02:50:01;;;;;;;17.88;4.10;;;;;;;1.47;100.00;99644.13;4898966;29;20120;-88
2021/12/05 02:52:32;;;;;;;20.33;5.35;;;;;;;1.09;100.00;99564.06;4897583;29;20033;-88
2021/12/05 02:55:12;;;;;;;16.17;4.60;;;;;;;1.58;100.00;99630.31;4897369;29;20379;-88
2021/12/05 03:00:15;;;;;;;18.70;4.43;;;;;;;1.38;100.00;99593.44;4898621;29;20106;-88
2021/12/05 03:02:51;;;;;;;21.63;4.90;;;;;;;1.63;100.00;99648.47;4899370;29;20087;-88
2021/12/05 03:05:20;;;;;;;15.50;4.20;;;;;;;1.48;100.00;99608.38;4897472;29;20524;-88
2021/12/05 03:07:49;;;;;;;26.20;5.20;;;;;;;1.25;100.00;99563.06;4897495;29;20037;-89
2021/12/05 03:10:21;;;;;;;21.02;4.50;;;;;;;1.15;100.00;99531.25;4899091;29;20178;-89
2021/12/05 03:12:47;;;;;;;20.95;5.00;;;;;;;1.58;100.00;99596.38;4882088;29;20040;-89
2021/12/05 03:15:22;;;;;;;15.35;4.20;;;;;;;1.32;100.00;99545.25;4898761;29;20431;-89
2021/12/05 03:17:47;;;;;;;17.70;4.85;;;;;;;1.50;100.00;99569.72;4897896;29;20127;-89
2021/12/05 03:20:15;;;;;;;15.45;4.85;;;;;;;1.55;100.00;99572.69;4898103;29;20111;-89
2021/12/05 03:22:43;;;;;;;18.23;4.30;;;;;;;1.66;100.00;99583.91;4899181;29;20036;-89
2021/12/05 03:25:10;;;;;;;17.08;4.60;;;;;;;1.73;100.00;99596.31;4897996;29;20039;-89
2021/12/05 03:27:39;;;;;;;13.77;4.47;;;;;;;2.01;100.00;99627.72;4899136;29;20029;-89
2021/12/05 03:30:07;;;;;;;17.17;4.60;;;;;;;1.37;100.00;99538.34;4897299;29;20047;-90
2021/12/05 03:32:37;;;;;;;19.80;4.88;;;;;;;1.57;100.00;99551.09;4897410;29;20024;-90
2021/12/05 03:35:07;;;;;;;12.60;4.68;;;;;;;1.73;100.00;99584.81;4897528;29;20482;-90
2021/12/05 03:37:33;;;;;;;17.67;4.63;;;;;;;1.99;100.00;99621.69;4897231;29;20033;-89
2021/12/05 03:39:59;;;;;;;13.82;4.72;;;;;;;1.39;100.00;99525.59;4897396;29;20024;-89
2021/12/05 03:42:24;;;;;;;13.82;5.13;;;;;;;1.96;100.00;99614.06;4897639;29;20454;-90
2021/12/05 03:44:50;;;;;;;15.45;5.22;;;;;;;1.49;100.00;99537.84;4897265;29;20124;-89
2021/12/05 03:47:16;;;;;;;18.52;5.38;;;;;;;1.44;100.00;99525.03;4897273;29;20117;-89
2021/12/05 03:49:42;;;;;;;20.50;5.47;;;;;;;1.85;100.00;99594.00;4898511;29;20482;-90
2021/12/05 03:52:15;;;;;;;13.80;5.15;;;;;;;1.54;100.00;99538.94;4897053;29;20076;-89
2021/12/05 03:54:44;;;;;;;15.48;5.60;;;;;;;1.63;100.00;99545.00;4897409;29;20025;-89
2021/12/05 03:57:12;;;;;;;18.05;5.68;;;;;;;1.66;100.00;99543.78;4898602;29;20029;-89
2021/12/05 03:59:38;;;;;;;17.65;5.50;;;;;;;2.07;100.00;99589.47;4897044;29;20056;-90
2021/12/05 04:02:06;;;;;;;11.48;5.20;;;;;;;1.70;100.00;99534.38;4897419;29;20097;-89
2021/12/05 04:04:32;;;;;;;12.70;5.13;;;;;;;1.92;100.00;99556.63;4896635;29;20108;-89
2021/12/05 04:06:59;;;;;;;14.07;6.47;;;;;;;1.62;100.00;99521.94;4897215;29;20490;-89
2021/12/05 04:09:28;;;;;;;15.35;5.32;;;;;;;1.75;100.00;99546.16;4897628;29;20028;-89
2021/12/05 04:11:58;;;;;;;12.63;5.20;;;;;;;2.05;100.00;99574.63;4897315;29;20056;-89
2021/12/05 04:14:32;;;;;;;13.10;5.13;;;;;;;2.09;100.00;99589.28;4898152;29;20043;-89
2021/12/05 04:17:01;;;;;;;14.48;4.93;;;;;;;1.75;100.00;99530.09;4882281;29;20096;-89
2021/12/05 04:19:27;;;;;;;13.05;4.85;;;;;;;2.16;100.00;99592.88;4897087;29;20477;-88
2021/12/05 04:21:53;;;;;;;13.60;5.15;;;;;;;2.12;100.00;99596.13;4898070;29;20028;-90
2021/12/05 04:24:21;;;;;;;8.35;4.43;;;;;;;2.02;100.00;99580.38;4897465;29;20401;-91
2021/12/05 04:26:48;;;;;;;14.98;4.93;;;;;;;1.98;100.00;99569.22;4897815;29;20123;-90
2021/12/05 04:29:20;;;;;;;13.25;4.72;;;;;;;1.99;100.00;99576.22;4881627;29;20041;-90
2021/12/05 04:31:46;;;;;;;16.13;4.95;;;;;;;2.08;100.00;99584.94;4897310;29;20068;-90
2021/12/05 04:34:14;;;;;;;12.82;4.70;;;;;;;1.90;100.00;99554.09;4897051;29;20068;-89
2021/12/05 04:36:41;;;;;;;11.95;4.53;;;;;;;2.31;100.00;99624.09;4896690;29;20091;-89
2021/12/05 04:39:06;;;;;;;14.25;4.63;;;;;;;1.86;100.00;99552.84;4896312;29;20040;-89
2021/12/05 04:41:33;;;;;;;15.48;4.72;;;;;;;1.74;100.00;99536.50;4896960;29;20044;-89
2021/12/05 04:44:01;;;;;;;12.57;4.30;;;;;;;1.75;100.00;99539.97;4896407;29;20033;-89
2021/12/05 04:46:27;;;;;;;15.18;4.95;;;;;;;1.83;100.00;99549.72;4915323;29;20056;-89
2021/12/05 04:48:56;;;;;;;9.90;4.47;;;;;;;1.90;100.00;99569.34;4899507;29;20048;-89
2021/12/05 04:51:29;;;;;;;12.40;4.70;;;;;;;1.73;100.00;99537.50;4899355;29;20033;-89
2021/12/05 04:53:56;;;;;;;14.20;4.93;;;;;;;1.78;100.00;99542.28;4899645;29;20032;-89
2021/12/05 04:56:22;;;;;;;11.68;4.78;;;;;;;2.13;100.00;99585.22;4899029;29;20032;-89
2021/12/05 04:58:48;;;;;;;12.52;4.25;;;;;;;1.96;100.00;99573.09;4899378;29;20025;-89
2021/12/05 05:01:14;;;;;;;13.35;5.00;;;;;;;1.98;100.00;99571.91;4883788;29;20032;-89
2021/12/05 05:03:39;;;;;;;13.65;4.80;;;;;;;1.66;100.00;99536.59;4916287;29;20056;-89
2021/12/05 05:06:14;;;;;;;10.40;4.82;;;;;;;1.66;100.00;99531.25;4916879;29;20043;-90
2021/12/05 05:08:40;;;;;;;11.80;4.20;;;;;;;1.67;100.00;99532.06;4920155;29;20095;-89
2021/12/05 05:11:11;;;;;;;10.48;4.57;;;;;;;2.05;100.00;99598.72;4919774;29;20032;-89
2021/12/05 05:13:37;;;;;;;13.35;5.07;;;;;;;2.02;100.00;99594.59;4902983;29;20031;-89
2021/12/05 05:16:08;;;;;;;10.93;4.53;;;;;;;1.87;100.00;99573.22;4887316;29;20421;-89
2021/12/05 05:19:09;;;;;;;10.48;4.45;;;;;;;1.63;100.00;99541.50;4902854;29;20040;-89
2021/12/05 05:40:56;;;;;;;9.52;4.30;;;;;;;1.51;100.00;99552.69;4920080;29;20126;-90
2021/12/05 05:51:09;;;;;;;5.75;4.25;;;;;;;1.70;100.00;99607.41;4902218;29;20450;-89
2021/12/05 05:53:38;;;;;;;6.55;3.92;;;;;;;1.42;100.00;99575.19;4886904;29;20036;-89
2021/12/05 05:56:12;;;;;;;8.98;4.18;;;;;;;1.34;100.00;99573.44;4902034;29;20040;-88
2021/12/05 05:58:43;;;;;;;11.10;4.40;;;;;;;1.40;100.00;99577.22;4886812;29;20042;-88
2021/12/05 06:01:18;;;;;;;6.95;4.07;;;;;;;1.83;100.00;99665.56;4903117;29;20038;-89
2021/12/05 06:03:44;;;;;;;8.82;4.20;;;;;;;1.60;100.00;99636.28;4919277;29;20028;-90
2021/12/05 06:06:15;;;;;;;9.80;4.10;;;;;;;1.44;100.00;99618.59;4901954;29;20096;-89
2021/12/05 06:08:41;;;;;;;6.15;3.63;;;;;;;1.21;100.00;99581.28;4901664;29;20051;-89
2021/12/05 06:11:11;;;;;;;5.57;3.70;;;;;;;1.63;100.00;99643.94;4919323;29;20032;-90
2021/12/05 06:14:10;;;;;;;9.00;3.80;;;;;;;1.53;100.00;99641.53;4903246;29;20478;-93
2021/12/05 06:16:47;;;;;;;5.63;3.50;;;;;;;1.08;100.00;99581.94;4902877;29;20036;-93
2021/12/05 06:19:21;;;;;;;7.32;3.67;;;;;;;1.80;100.00;99690.03;4902045;29;20479;-92
2021/12/05 06:22:53;;;;;;;5.10;3.50;;;;;;;1.01;100.00;99576.50;4903227;29;20439;-93
2021/12/05 06:25:14;;;;;;;4.95;3.75;;;;;;;1.37;100.00;99639.91;4908901;29;20120;-91
2021/12/05 06:27:42;;;;;;;8.85;3.88;;;;;;;1.17;100.00;99593.38;4901427;29;20024;-89
2021/12/05 06:30:13;;;;;;;7.65;4.88;;;;;;;1.10;100.00;99576.44;4901705;29;20058;-91
2021/12/05 06:41:34;;;;;;;5.63;4.47;;;;;;;1.18;100.00;99606.56;4919067;29;20505;-92
2021/12/05 06:47:38;;;;;;;8.77;4.43;;;;;;;1.27;100.00;99638.50;4919105;29;20067;-92
2021/12/05 06:50:39;;;;;;;8.98;4.80;;;;;;;1.46;100.00;99674.53;4887200;29;20513;-94
2021/12/05 06:53:07;;;;;;;8.38;4.57;;;;;;;1.44;100.00;99657.88;4902442;29;20541;-89
2021/12/05 06:55:42;;;;;;;7.15;4.43;;;;;;;1.30;100.00;99630.13;4886529;29;20032;-92
2021/12/05 06:58:07;;;;;;;8.18;4.65;;;;;;;1.20;100.00;99628.56;4902041;29;20043;-92
2021/12/05 07:00:34;;;;;;;6.35;4.72;;;;;;;1.65;100.00;99698.03;4901941;29;20446;-91
2021/12/05 07:03:11;;;;;;;7.03;5.10;;;;;;;1.63;100.00;99699.25;4886279;29;20048;-92
2021/12/05 07:08:05;;;;;;;10.52;5.57;;;;;;;1.63;100.00;99718.78;4902191;29;20036;-92
2021/12/05 07:19:57;;;;;;;9.73;5.68;;;;;;;1.49;100.00;99690.22;4918368;29;20048;-93
2021/12/05 07:26:18;;;;;;;10.07;5.90;;;;;;;1.85;100.00;99750.97;4897633;29;20044;-92
2021/12/05 07:40:22;;;;;;;10.15;6.70;;;;;;;1.84;100.00;99746.63;4919251;29;20043;-93
2021/12/05 07:43:21;;;;;;;12.27;6.50;;;;;;;1.69;100.00;99726.06;4902219;29;20100;-92
2021/12/05 07:46:38;;;;;;;11.52;6.43;;;;;;;1.89;100.00;99749.56;4901984;29;20056;-93
2021/12/05 07:49:11;;;;;;;10.85;6.65;;;;;;;1.70;100.00;99727.75;4902050;29;20040;-93
2021/12/05 07:52:08;;;;;;;10.15;6.28;;;;;;;1.84;100.00;99747.47;4902032;29;20367;-93
2021/12/05 07:54:52;;;;;;;10.18;6.80;;;;;;;1.89;100.00;99758.44;4903917;29;20044;-93
2021/12/05 07:58:09;;;;;;;9.07;6.82;;;;;;;1.53;100.00;99705.69;4888459;29;20505;-93
2021/12/05 08:15:34;;;;;;;8.13;6.22;;;;;;;1.73;100.00;99732.72;4918581;29;20080;-92
2021/12/05 08:22:20;;;;;;;14.02;7.20;;;;;;;2.34;100.00;99822.63;4859871;29;20415;-93
2021/12/05 08:24:51;;;;;;;9.85;6.57;;;;;;;2.34;100.00;99817.25;4844866;29;20455;-92
2021/12/05 08:27:23;;;;;;;10.57;6.20;;;;;;;1.77;100.00;99730.50;4844848;29;20029;-93
2021/12/05 08:29:58;;;;;;;10.95;6.82;;;;;;;2.36;100.00;99825.09;4844927;29;20499;-92
2021/12/05 08:32:55;;;;;;;10.60;6.68;;;;;;;2.01;100.00;99764.16;4889720;29;20043;-93
2021/12/05 08:44:12;;;;;;;10.25;6.43;;;;;;;1.99;100.00;99758.16;4922119;29;20397;-92
2021/12/05 09:26:16;;;;;;;9.85;7.07;;;;;;;2.13;100.00;99831.41;4886082;29;20160;-85
2021/12/05 10:09:41;;;;;;;16.58;11.57;;;;;;;2.59;100.00;99959.72;4899006;29;20040;-86
2021/12/05 10:12:43;;;;;;;19.10;12.30;;;;;;;1.71;100.00;99827.50;4914050;29;20036;-87
2021/12/05 10:16:00;;;;;;;18.30;12.90;;;;;;;2.55;100.00;99957.59;4899120;29;20032;-87
2021/12/05 10:27:14;;;;;;;18.63;13.38;;;;;;;2.39;100.00;99929.16;4898775;29;20100;-86
2021/12/05 10:36:06;;;;;;;19.02;11.32;;;;;;;2.70;100.00;99979.88;4899042;29;20112;-87
2021/12/05 10:38:48;;;;;;;16.00;10.70;;;;;;;2.25;100.00;99912.06;4882301;29;20032;-86
2021/12/05 10:42:00;;;;;;;14.93;10.93;;;;;;;1.97;100.00;99871.72;4913376;29;20068;-87
2021/12/05 10:44:27;;;;;;;13.63;9.73;;;;;;;2.67;100.00;99982.88;4884514;29;20770;-87
2021/12/05 10:46:59;;;;;;;14.80;10.18;;;;;;;1.96;100.00;99881.59;4893690;29;20060;-87
2021/12/05 10:49:30;;;;;;;14.82;9.82;;;;;;;2.37;100.00;99955.28;4880306;29;20045;-87
2021/12/05 10:51:57;;;;;;;13.25;10.25;;;;;;;2.58;100.00;99990.22;4879634;29;20061;-87
2021/12/05 10:54:27;;;;;;;13.55;9.60;;;;;;;2.42;100.00;99963.59;4878481;29;20043;-87
2021/12/05 11:00:12;;;;;;;16.67;10.15;;;;;;;2.36;100.00;99959.81;4852800;29;20516;-86
2021/12/05 11:02:38;;;;;;;11.73;9.80;;;;;;;2.66;100.00;99994.63;4878003;29;20033;-86
2021/12/05 11:05:07;;;;;;;10.15;7.45;;;;;;;2.58;100.00;99975.97;4877753;29;20722;-86
2021/12/05 11:07:38;;;;;;;7.93;6.93;;;;;;;1.96;100.00;99897.63;4879638;29;20025;-86
2021/12/05 11:10:10;;;;;;;8.25;6.72;;;;;;;2.38;100.00;99957.78;4879556;29;20048;-87
2021/12/05 11:12:36;;;;;;;9.10;6.57;;;;;;;2.29;100.00;99926.75;4909740;29;20108;-87
2021/12/05 11:15:12;;;;;;;9.07;5.80;;;;;;;2.72;100.00;99991.22;4878158;29;20037;-88
2021/12/05 11:17:43;;;;;;;8.48;5.90;;;;;;;2.49;100.00;99955.66;4878899;29;20025;-86
2021/12/05 11:20:34;;;;;;;6.78;5.85;;;;;;;2.63;100.00;99957.50;4881418;29;20116;-90
2021/12/05 11:23:00;;;;;;;7.28;5.90;;;;;;;2.60;100.00;99955.22;4878554;29;20069;-87
2021/12/05 11:25:31;;;;;;;7.38;5.90;;;;;;;2.32;100.00;99904.13;4878128;29;20040;-87
2021/12/05 11:28:00;;;;;;;6.90;5.88;;;;;;;2.37;100.00;99901.75;4878532;29;20033;-87
2021/12/05 11:30:32;;;;;;;7.60;6.63;;;;;;;2.51;100.00;99921.47;4909448;29;20372;-87
2021/12/05 11:33:00;;;;;;;;;;;;;;;3.09;100.00;100013.53;4878720;29;20112;-87
2021/12/05 11:35:28;;;;;;;10.63;7.18;;;;;;;3.05;100.00;100014.09;4878961;29;19940;-88
2021/12/05 11:38:19;;;;;;;10.70;8.13;;;;;;;2.85;100.00;99973.66;4909282;29;20088;-87
2021/12/05 11:40:53;;;;;;;10.35;8.27;;;;;;;3.10;100.00;100031.31;4878120;29;20033;-87
2021/12/05 11:43:30;;;;;;;9.27;7.78;;;;;;;2.46;100.00;99930.91;4909476;29;20037;-87
2021/12/05 11:46:04;;;;;;;10.30;8.15;;;;;;;2.83;100.00;100008.66;4910741;29;20037;-87
2021/12/05 11:48:46;;;;;;;9.80;8.15;;;;;;;2.90;100.00;100014.94;4881176;29;20119;-87
2021/12/05 11:51:24;;;;;;;11.88;9.07;;;;;;;2.53;100.00;99955.09;4881028;29;20055;-86
2021/12/05 11:53:58;;;;;;;9.60;8.52;;;;;;;3.05;100.00;100046.28;4911811;29;20036;-86
2021/12/05 11:56:30;;;;;;;11.07;9.80;;;;;;;3.09;100.00;100040.34;4912295;29;20032;-86
2021/12/05 11:59:12;;;;;;;11.70;10.00;;;;;;;2.54;100.00;99950.56;4912484;29;20496;-87
2021/12/05 12:02:00;;;;;;;12.63;10.35;;;;;;;2.52;100.00;99949.94;4912220;29;20120;-87
2021/12/05 12:04:48;;;;;;;11.10;9.50;;;;;;;2.62;100.00;99963.88;4912191;29;20085;-87
2021/12/05 12:07:29;;;;;;;10.93;9.73;;;;;;;3.15;100.00;100053.00;4912118;29;20127;-86
2021/12/05 12:10:20;;;;;;;11.10;9.63;;;;;;;3.24;100.00;100040.31;4912219;29;20040;-87
2021/12/05 12:12:52;;;;;;;12.93;9.85;;;;;;;2.90;100.00;99965.88;4911803;29;20028;-87
2021/12/05 12:15:22;;;;;;;10.90;9.13;;;;;;;3.27;100.00;100021.19;4880469;29;20045;-87
2021/12/05 12:17:52;;;;;;;10.40;9.15;;;;;;;3.55;100.00;100051.84;4880485;29;20088;-87
2021/12/05 12:20:22;;;;;;;10.95;8.70;;;;;;;2.96;100.00;99955.25;4880915;29;20033;-87
2021/12/05 12:22:52;;;;;;;9.68;8.25;;;;;;;3.14;100.00;99970.09;4911810;29;20063;-87
2021/12/05 12:25:21;;;;;;;9.88;8.30;;;;;;;3.74;100.00;100042.34;4912172;29;20397;-87
2021/12/05 12:27:51;;;;;;;10.18;9.13;;;;;;;3.27;100.00;99972.91;4897296;29;20557;-86
2021/12/05 12:30:44;;;;;;;11.05;8.43;;;;;;;3.85;100.00;100064.16;4895395;29;20037;-88
2021/12/05 12:33:32;;;;;;;9.18;8.25;;;;;;;3.61;100.00;100032.31;4867546;29;20036;-87
2021/12/05 12:35:58;;;;;;;9.98;8.63;;;;;;;3.44;100.00;100010.22;4880689;29;20039;-87
2021/12/05 12:38:41;;;;;;;9.77;8.57;;;;;;;3.29;100.00;99983.47;4880284;29;20032;-86
2021/12/05 12:41:15;;;;;;;10.13;8.70;;;;;;;3.76;100.00;100075.19;4911770;29;20040;-87
2021/12/05 12:43:44;;;;;;;10.48;9.20;;;;;;;3.64;100.00;100080.22;4880742;29;20117;-87
2021/12/05 12:46:17;;;;;;;10.50;9.23;;;;;;;3.54;100.00;100079.69;4910991;29;20510;-87
2021/12/05 12:48:43;;;;;;;9.95;8.88;;;;;;;3.10;100.00;100025.09;4880667;29;20033;-86
2021/12/05 12:51:25;;;;;;;10.25;9.00;;;;;;;3.10;100.00;100043.84;4911516;29;20050;-87
2021/12/05 12:53:57;;;;;;;10.25;8.80;;;;;;;3.13;100.00;100057.72;4880425;29;20024;-87
2021/12/05 12:56:24;;;;;;;11.25;9.05;;;;;;;2.86;100.00;100012.81;4880486;29;20076;-86
2021/12/05 12:59:00;;;;;;;10.73;8.93;;;;;;;2.71;100.00;99986.03;4896597;29;20067;-86
2021/12/05 13:10:42;;;;;;;11.40;8.23;;;;;;;2.70;100.00;100005.81;4897410;29;20055;-86
2021/12/05 13:13:18;;;;;;;11.48;9.05;;;;;;;2.74;100.00;100024.00;4897194;29;20876;-87
2021/12/05 13:15:59;;;;;;;13.35;10.45;;;;;;;2.74;100.00;100021.31;4911593;29;20036;-86
2021/12/05 13:18:30;;;;;;;12.15;9.57;;;;;;;2.98;100.00;100056.88;4911647;29;20356;-86
2021/12/05 13:21:08;;;;;;;11.80;8.88;;;;;;;2.75;100.00;100022.16;4879518;29;20063;-87
2021/12/05 13:23:50;;;;;;;12.77;9.15;;;;;;;2.78;100.00;100040.56;4912090;29;20505;-87
2021/12/05 13:26:34;;;;;;;10.52;9.02;;;;;;;3.18;100.00;100105.41;4897073;29;20032;-87
2021/12/05 13:29:19;;;;;;;12.18;9.00;;;;;;;3.01;100.00;100077.13;4914735;29;20044;-87
2021/12/05 13:32:05;;;;;;;10.70;8.77;;;;;;;2.97;100.00;100072.16;4900521;29;20481;-86
2021/12/05 13:34:46;;;;;;;10.20;8.75;;;;;;;3.19;100.00;100108.91;4914781;29;20032;-86
2021/12/05 13:37:13;;;;;;;11.93;8.70;;;;;;;3.32;100.00;100139.44;4914601;29;20040;-87
2021/12/05 13:40:01;;;;;;;8.43;7.50;;;;;;;2.68;100.00;100040.81;4914476;29;20123;-86
2021/12/05 13:42:37;;;;;;;12.18;8.80;;;;;;;3.34;100.00;100142.75;4914917;29;20036;-86
2021/12/05 13:45:19;;;;;;;9.93;8.75;;;;;;;3.09;100.00;100106.53;4914603;29;20055;-86
2021/12/05 13:47:53;;;;;;;9.93;8.77;;;;;;;3.30;100.00;100157.56;4914279;29;20052;-86
2021/12/05 13:50:22;;;;;;;12.15;9.77;;;;;;;3.33;100.00;100151.00;4914375;29;20060;-86
2021/12/05 13:53:06;;;;;;;12.65;10.07;;;;;;;3.37;100.00;100152.28;4913960;29;20084;-87
2021/12/05 13:55:53;;;;;;;12.18;9.65;;;;;;;3.41;100.00;100150.91;4914335;29;20048;-86
2021/12/05 13:58:35;;;;;;;11.82;9.77;;;;;;;3.46;100.00;100159.22;4914795;29;20032;-86
2021/12/05 14:01:26;;;;;;;11.43;9.35;;;;;;;3.51;100.00;100161.34;4914801;29;20040;-88
2021/12/05 14:04:13;;;;;;;12.60;10.20;;;;;;;3.54;100.00;100160.97;4915753;29;20072;-86
2021/12/05 14:07:01;;;;;;;11.90;10.25;;;;;;;3.26;100.00;100115.22;4913738;29;20033;-86
2021/12/05 14:09:49;;;;;;;14.23;10.38;;;;;;;3.35;100.00;100124.81;4882518;29;20043;-86
2021/12/05 14:12:27;;;;;;;12.52;10.15;;;;;;;3.35;100.00;100114.09;4896987;29;20046;-86
2021/12/05 14:14:53;;;;;;;13.50;10.63;;;;;;;3.71;100.00;100175.03;4913518;29;20033;-86
2021/12/05 14:17:31;;;;;;;11.63;10.27;;;;;;;3.18;100.00;100096.56;4913566;29;20039;-86
2021/12/05 14:20:10;;;;;;;11.98;10.00;;;;;;;3.10;100.00;100082.22;4899429;29;20032;-86
2021/12/05 14:22:37;;;;;;;11.15;9.77;;;;;;;3.44;100.00;100137.13;4913686;29;20032;-85
2021/12/05 14:25:13;;;;;;;11.32;9.30;;;;;;;3.69;100.00;100185.09;4898908;29;20040;-86
2021/12/05 14:27:57;;;;;;;10.80;9.10;;;;;;;3.34;99.72;100136.59;4913780;29;20032;-86
2021/12/05 14:30:32;;;;;;;9.13;8.23;;;;;;;3.58;98.90;100191.78;4898860;29;20490;-86
2021/12/05 14:32:59;;;;;;;10.35;8.85;;;;;;;3.61;99.83;100206.66;4913915;29;20478;-87
2021/12/05 14:35:30;;;;;;;9.63;8.63;;;;;;;3.62;99.66;100209.16;4913330;29;20088;-86
2021/12/05 14:37:56;;;;;;;9.65;8.23;;;;;;;3.28;99.67;100164.13;4882244;29;20028;-86
2021/12/05 14:43:32;;;;;;;10.85;9.05;;;;;;;3.12;99.58;100149.06;4888125;29;20097;-86
2021/12/05 14:46:09;;;;;;;9.75;8.75;;;;;;;3.37;100.00;100197.06;4881825;29;20040;-86
2021/12/05 14:48:38;;;;;;;9.40;8.40;;;;;;;3.09;99.21;100157.47;4899347;29;20075;-88
2021/12/05 14:51:07;;;;;;;8.90;8.00;;;;;;;3.52;99.55;100213.97;4915699;29;20032;-87
2021/12/05 14:53:40;;;;;;;9.43;8.43;;;;;;;3.19;99.29;100155.34;4884774;29;20131;-87
2021/12/05 14:56:08;;;;;;;12.88;9.20;;;;;;;3.22;99.91;100165.69;4916815;29;20032;-87
2021/12/05 14:58:34;;;;;;;12.05;9.57;;;;;;;3.70;100.00;100237.75;4917768;29;20040;-87
2021/12/05 15:01:00;;;;;;;11.05;9.38;;;;;;;3.34;100.00;100177.63;4902208;29;20061;-87
2021/12/05 15:03:29;;;;;;;10.90;9.45;;;;;;;3.30;100.00;100173.63;4918016;29;20457;-87
2021/12/05 15:05:57;;;;;;;12.43;9.85;;;;;;;3.36;100.00;100188.16;4903676;29;20478;-87
2021/12/05 15:08:29;;;;;;;10.88;9.27;;;;;;;3.64;100.00;100238.50;4919192;29;20123;-88
2021/12/05 15:11:04;;;;;;;11.80;10.13;;;;;;;3.66;100.00;100250.72;4886640;29;20075;-87
2021/12/05 15:13:30;;;;;;;11.77;10.05;;;;;;;3.66;100.00;100258.75;4883898;29;20478;-88
2021/12/05 15:16:01;;;;;;;11.75;10.10;;;;;;;3.51;100.00;100237.28;4915102;29;20108;-87
2021/12/05 15:18:32;;;;;;;12.00;9.35;;;;;;;3.33;99.58;100220.72;4882975;29;20044;-87
2021/12/05 15:21:00;;;;;;;12.70;10.50;;;;;;;3.30;99.96;100213.03;4914243;29;20029;-87
2021/12/05 15:23:30;;;;;;;12.02;9.88;;;;;;;3.61;98.87;100276.41;4881919;29;20281;-87
2021/12/05 15:26:01;;;;;;;11.68;9.32;;;;;;;3.52;99.93;100262.25;4882101;29;20092;-87
2021/12/05 15:28:26;;;;;;;13.10;9.77;;;;;;;3.31;99.84;100231.63;4913099;29;20123;-87
2021/12/05 15:30:52;;;;;;;13.15;10.40;;;;;;;3.55;99.82;100274.47;4897812;29;20132;-88
2021/12/05 15:33:21;;;;;;;11.75;9.52;;;;;;;3.28;98.95;100233.84;4866819;29;20048;-87
2021/12/05 15:35:48;;;;;;;13.07;10.82;;;;;;;3.65;99.11;100300.00;4882960;29;20471;-88
2021/12/05 15:38:29;;;;;;;13.77;10.77;;;;;;;3.36;99.21;100265.94;4914671;29;20025;-88
2021/12/05 15:40:59;;;;;;;13.15;10.68;;;;;;;3.27;98.48;100254.44;4882084;29;20056;-87
2021/12/05 15:43:27;;;;;;;14.07;11.07;;;;;;;3.55;98.13;100301.31;4913752;29;20029;-87
2021/12/05 15:45:55;;;;;;;14.27;11.57;;;;;;;3.60;98.78;100310.47;4896610;29;20041;-87
2021/12/05 15:48:30;;;;;;;13.30;10.98;;;;;;;3.50;99.39;100304.53;4883184;29;20041;-88
2021/12/05 15:50:57;;;;;;;12.15;10.52;;;;;;;3.27;98.30;100273.22;4881478;29;20035;-87
2021/12/05 15:53:25;;;;;;;13.63;10.98;;;;;;;3.67;99.53;100332.03;4881673;29;20037;-88
2021/12/05 15:55:59;;;;;;;13.48;10.70;;;;;;;3.72;98.67;100347.56;4881886;29;20032;-88
2021/12/05 15:59:00;;;;;;;13.48;11.13;;;;;;;3.63;99.97;100341.44;4881501;29;20075;-88
2021/12/05 16:01:27;;;;;;;15.02;10.85;;;;;;;3.59;98.84;100349.03;4881978;29;20083;-87
2021/12/05 16:04:05;;;;;;;14.82;11.25;;;;;;;3.42;99.14;100318.84;4913196;29;20036;-88
2021/12/05 16:06:37;;;;;;;13.68;11.02;;;;;;;3.56;98.87;100344.03;4881698;29;20036;-88
2021/12/05 16:09:21;;;;;;;13.50;10.90;;;;;;;3.72;100.00;100377.09;4913668;29;20028;-88
2021/12/05 16:11:49;;;;;;;15.35;11.27;;;;;;;3.65;100.00;100375.13;4899217;29;20024;-88
2021/12/05 16:14:28;;;;;;;15.18;10.55;;;;;;;3.40;99.46;100333.47;4900483;29;20032;-88
2021/12/05 16:16:53;;;;;;;13.15;10.20;;;;;;;3.75;99.50;100393.69;4881410;29;20088;-88
2021/12/05 16:19:22;;;;;;;15.05;10.80;;;;;;;3.72;99.68;100395.88;4897745;29;20033;-88
2021/12/05 16:21:51;;;;;;;18.00;13.30;;;;;;;3.14;99.43;100306.03;4881726;29;20398;-87
2021/12/05 16:24:20;;;;;;;17.73;12.93;;;;;;;3.49;99.53;100376.09;4881497;29;20084;-88
2021/12/05 16:26:48;;;;;;;17.48;13.70;;;;;;;3.23;99.45;100346.97;4912253;29;20028;-88
2021/12/05 16:29:19;;;;;;;16.52;12.23;;;;;;;3.19;100.00;100337.66;4880710;29;20034;-88
2021/12/05 16:31:46;;;;;;;17.08;12.15;;;;;;;3.77;100.00;100417.66;4912068;29;20025;-87
2021/12/05 16:34:19;;;;;;;15.10;11.20;;;;;;;3.12;100.00;100332.16;4880665;29;20048;-88
2021/12/05 16:37:20;;;;;;;14.40;11.07;;;;;;;3.21;100.00;100349.03;4887633;29;20037;-88
2021/12/05 16:39:55;;;;;;;14.13;10.65;;;;;;;3.20;100.00;100350.03;4884946;29;20450;-90
2021/12/05 16:42:23;;;;;;;13.48;10.73;;;;;;;3.55;100.00;100413.97;4912138;29;20036;-88
2021/12/05 16:44:58;;;;;;;13.23;10.55;;;;;;;3.15;100.00;100357.78;4912851;29;20084;-88
2021/12/05 16:47:28;;;;;;;13.57;10.68;;;;;;;3.71;100.00;100451.41;4909256;29;20423;-88
2021/12/05 16:49:56;;;;;;;14.80;10.98;;;;;;;3.38;100.00;100384.59;4909111;29;20033;-89
2021/12/05 16:52:36;;;;;;;14.00;10.60;;;;;;;3.50;100.00;100407.28;4877734;29;20041;-88
2021/12/05 16:55:26;;;;;;;15.52;10.90;;;;;;;3.76;100.00;100445.47;4877526;29;20049;-88
2021/12/05 16:58:17;;;;;;;17.25;11.07;;;;;;;3.17;100.00;100361.09;4909454;29;20093;-88
2021/12/05 17:00:49;;;;;;;16.58;11.60;;;;;;;3.19;100.00;100358.25;4908912;29;20040;-88
2021/12/05 17:03:26;;;;;;;15.38;11.38;;;;;;;3.75;100.00;100447.34;4881156;29;20496;-88
2021/12/05 17:06:05;;;;;;;15.32;11.38;;;;;;;3.18;100.00;100367.31;4912790;29;20651;-88
2021/12/05 17:08:34;;;;;;;16.35;11.70;;;;;;;3.22;100.00;100365.94;4898094;29;20037;-88
2021/12/05 17:11:05;;;;;;;18.35;11.00;;;;;;;3.19;100.00;100366.28;4913292;29;20033;-88
2021/12/05 17:13:42;;;;;;;14.90;11.30;;;;;;;3.55;100.00;100432.75;4913189;29;20131;-88
2021/12/05 17:16:24;;;;;;;25.25;16.60;;;;;;;3.34;100.00;100402.06;4913142;29;20033;-88
2021/12/05 17:19:06;;;;;;;17.20;12.93;;;;;;;3.22;100.00;100398.09;4912032;29;20080;-86